Time;durP1;ratioP1;P1;durP2;ratioP2;P2;SDS_P1;SDS_P2;PMS_P1;PMS_P2;Temp;Humidity;BMP_temperature;BMP_pressure;BME280_temperature;BME280_humidity;BME280_pressure;Samples;Min_cycle;Max_cycle;Signal;HPM_P1;HPM_P2
2022/08/01 00:01:36;;;;;;;6.70;3.22;;;;;;;;;;5024656;28;20042;-57
2022/08/01 00:04:01;;;;;;;3.10;2.67;;;;;;;;;;5029858;28;20037;-57
2022/08/01 00:06:27;;;;;;;4.07;3.08;;;;;;;;;;5037302;28;20029;-58
2022/08/01 00:08:52;;;;;;;4.63;3.10;;;;;;;;;;5030501;28;20021;-57
2022/08/01 00:11:18;;;;;;;5.03;3.10;;;;;;;;;;5028397;28;20133;-58
2022/08/01 00:13:43;;;;;;;4.65;3.47;;;;;;;;;;5029159;28;20365;-58
2022/08/01 00:16:08;;;;;;;4.28;3.17;;;;;;;;;;5029820;28;20268;-57
2022/08/01 00:18:35;;;;;;;6.90;3.55;;;;;;;;;;5026102;28;20029;-58
2022/08/01 00:21:01;;;;;;;3.97;3.20;;;;;;;;;;5025992;28;20120;-57
2022/08/01 00:23:26;;;;;;;6.40;3.35;;;;;;;;;;5029105;28;20033;-57
2022/08/01 00:25:52;;;;;;;4.93;3.17;;;;;;;;;;5028920;28;20049;-58
2022/08/01 00:28:17;;;;;;;4.13;3.15;;;;;;;;;;5027624;28;20475;-58
2022/08/01 00:30:43;;;;;;;6.22;3.30;;;;;;;;;;5027017;28;20023;-58
2022/08/01 00:33:08;;;;;;;4.57;3.53;;;;;;;;;;5025604;28;20025;-57
2022/08/01 00:35:34;;;;;;;6.35;3.40;;;;;;;;;;5027127;28;20022;-57
2022/08/01 00:37:59;;;;;;;4.10;3.13;;;;;;;;;;5027159;28;20490;-57
2022/08/01 00:40:24;;;;;;;5.75;3.55;;;;;;;;;;5027944;28;20021;-57
2022/08/01 00:42:50;;;;;;;3.90;3.50;;;;;;;;;;5025739;28;20109;-58
2022/08/01 00:45:15;;;;;;;6.28;3.15;;;;;;;;;;5027366;28;20029;-57
2022/08/01 00:47:41;;;;;;;4.18;3.53;;;;;;;;;;5027076;28;20395;-57
2022/08/01 00:50:07;;;;;;;6.32;3.13;;;;;;;;;;5027883;28;20092;-57
2022/08/01 00:52:34;;;;;;;5.50;3.70;;;;;;;;;;5024803;28;20021;-57
2022/08/01 00:54:59;;;;;;;5.25;3.45;;;;;;;;;;5026475;28;20499;-58
2022/08/01 00:57:25;;;;;;;5.10;3.60;;;;;;;;;;5026539;28;20116;-57
2022/08/01 00:59:52;;;;;;;5.07;3.50;;;;;;;;;;5027382;28;20025;-57
2022/08/01 01:02:18;;;;;;;4.18;3.10;;;;;;;;;;5028367;28;20410;-57
2022/08/01 01:04:44;;;;;;;7.57;3.70;;;;;;;;;;5031344;28;20033;-57
2022/08/01 01:07:33;;;;;;;5.88;3.22;;;;;;;;;;5028767;28;20469;-57
2022/08/01 01:10:04;;;;;;;4.33;3.53;;;;;;;;;;5028822;28;20026;-57
2022/08/01 01:12:41;;;;;;;7.05;3.50;;;;;;;;;;5026481;28;20029;-57
2022/08/01 01:15:15;;;;;;;8.57;3.80;;;;;;;;;;5025038;28;20033;-57
2022/08/01 01:17:54;;;;;;;4.05;3.50;;;;;;;;;;5026273;28;20052;-57
2022/08/01 01:20:23;;;;;;;5.60;3.60;;;;;;;;;;5025161;28;20025;-57
2022/08/01 01:23:19;;;;;;;5.82;3.72;;;;;;;;;;5025292;28;20522;-57
2022/08/01 01:26:12;;;;;;;6.03;3.63;;;;;;;;;;5028511;28;20408;-57
2022/08/01 01:28:50;;;;;;;5.60;3.85;;;;;;;;;;5026851;28;20523;-57
2022/08/01 01:31:19;;;;;;;4.18;3.47;;;;;;;;;;5027371;28;20080;-57
2022/08/01 01:33:46;;;;;;;5.40;3.83;;;;;;;;;;5025636;28;20061;-57
2022/08/01 01:36:13;;;;;;;5.47;3.58;;;;;;;;;;5029332;28;20039;-57
2022/08/01 01:38:44;;;;;;;6.57;3.70;;;;;;;;;;5019622;28;20040;-57
2022/08/01 01:41:15;;;;;;;6.22;3.80;;;;;;;;;;5026155;28;20034;-57
2022/08/01 01:43:42;;;;;;;4.95;3.85;;;;;;;;;;5027391;28;20090;-57
2022/08/01 01:46:10;;;;;;;5.40;3.75;;;;;;;;;;5027445;28;20456;-57
2022/08/01 01:48:37;;;;;;;5.30;3.95;;;;;;;;;;5026406;28;20361;-57
2022/08/01 01:51:04;;;;;;;4.85;3.67;;;;;;;;;;5026328;28;20032;-57
2022/08/01 01:53:32;;;;;;;4.82;3.70;;;;;;;;;;5025182;28;20030;-57
2022/08/01 01:56:00;;;;;;;5.07;3.90;;;;;;;;;;5025262;28;20029;-57
2022/08/01 01:58:28;;;;;;;10.60;4.45;;;;;;;;;;5026460;28;20450;-57
2022/08/01 02:00:56;;;;;;;7.88;3.85;;;;;;;;;;5029339;28;20035;-57
2022/08/01 02:03:23;;;;;;;6.13;3.95;;;;;;;;;;5028116;28;20076;-57
2022/08/01 02:05:51;;;;;;;5.65;4.07;;;;;;;;;;5028821;28;20025;-57
2022/08/01 02:08:17;;;;;;;7.32;3.88;;;;;;;;;;5028288;28;20026;-57
2022/08/01 02:11:17;;;;;;;5.43;4.10;;;;;;;;;;5027730;28;20117;-57
2022/08/01 02:13:36;;;;;;;4.90;3.67;;;;;;;;;;5021994;28;20025;-57
2022/08/01 02:16:03;;;;;;;7.63;3.95;;;;;;;;;;5021848;28;20090;-57
2022/08/01 02:18:29;;;;;;;5.22;4.00;;;;;;;;;;5027816;28;20049;-57
2022/08/01 02:20:55;;;;;;;5.47;4.10;;;;;;;;;;5024051;28;20029;-57
2022/08/01 02:23:23;;;;;;;5.05;3.95;;;;;;;;;;5026788;28;20083;-57
2022/08/01 02:25:52;;;;;;;4.30;3.90;;;;;;;;;;5030642;28;20474;-58
2022/08/01 02:28:26;;;;;;;5.32;4.18;;;;;;;;;;5027825;28;20037;-57
2022/08/01 02:30:51;;;;;;;4.68;3.97;;;;;;;;;;5023754;28;20014;-57
2022/08/01 02:33:20;;;;;;;7.03;4.10;;;;;;;;;;5024408;28;20685;-57
2022/08/01 02:35:50;;;;;;;6.07;4.43;;;;;;;;;;5026426;28;20533;-57
2022/08/01 02:38:17;;;;;;;;;;;;;;;;;;5026499;28;20038;-57
2022/08/01 02:40:45;;;;;;;6.10;4.25;;;;;;;;;;5023512;28;19917;-57
2022/08/01 02:43:12;;;;;;;9.10;4.50;;;;;;;;;;5023029;28;20032;-57
2022/08/01 02:45:43;;;;;;;5.32;4.40;;;;;;;;;;5026427;28;20025;-57
2022/08/01 02:48:12;;;;;;;5.13;3.60;;;;;;;;;;5025494;28;20040;-57
2022/08/01 02:50:39;;;;;;;6.38;4.07;;;;;;;;;;5023493;28;20029;-57
2022/08/01 02:53:06;;;;;;;7.20;4.03;;;;;;;;;;5024099;28;20053;-57
2022/08/01 02:55:32;;;;;;;7.05;4.22;;;;;;;;;;5026504;28;20108;-57
2022/08/01 02:58:00;;;;;;;6.93;4.45;;;;;;;;;;5025504;28;20183;-57
2022/08/01 03:00:27;;;;;;;6.47;4.20;;;;;;;;;;5028163;28;20045;-57
2022/08/01 03:02:54;;;;;;;9.55;4.45;;;;;;;;;;5026701;28;20100;-57
2022/08/01 03:05:21;;;;;;;6.03;4.32;;;;;;;;;;5027880;28;20029;-57
2022/08/01 03:07:47;;;;;;;7.25;4.00;;;;;;;;;;5027013;28;20032;-57
2022/08/01 03:10:15;;;;;;;6.85;4.22;;;;;;;;;;5025302;28;20022;-57
2022/08/01 03:12:43;;;;;;;5.18;4.13;;;;;;;;;;5023685;28;20034;-57
2022/08/01 03:15:10;;;;;;;4.97;4.13;;;;;;;;;;5026835;28;20025;-57
2022/08/01 03:17:37;;;;;;;6.85;4.43;;;;;;;;;;5026897;28;20049;-57
2022/08/01 03:20:04;;;;;;;6.75;4.47;;;;;;;;;;5025570;28;20514;-57
2022/08/01 03:22:32;;;;;;;5.75;4.40;;;;;;;;;;5024190;28;20064;-57
2022/08/01 03:24:59;;;;;;;5.78;4.50;;;;;;;;;;5025987;28;20033;-58
2022/08/01 03:27:25;;;;;;;5.43;4.38;;;;;;;;;;5020279;28;20040;-57
2022/08/01 03:29:54;;;;;;;8.88;4.28;;;;;;;;;;5024596;28;20021;-57
2022/08/01 03:32:22;;;;;;;5.72;4.57;;;;;;;;;;5024745;28;20060;-57
2022/08/01 03:34:48;;;;;;;7.22;4.68;;;;;;;;;;5027601;28;20425;-57
2022/08/01 03:37:33;;;;;;;7.10;4.47;;;;;;;;;;5029971;28;20033;-57
2022/08/01 03:40:07;;;;;;;7.72;4.32;;;;;;;;;;5026854;28;20121;-57
2022/08/01 03:42:37;;;;;;;6.57;4.47;;;;;;;;;;5028449;28;20029;-56
2022/08/01 03:45:06;;;;;;;5.95;4.57;;;;;;;;;;5030789;28;20041;-57
2022/08/01 03:47:33;;;;;;;;;;;;;;;;;;5026210;28;20032;-56
2022/08/01 03:50:01;;;;;;;6.95;4.57;;;;;;;;;;5027529;28;19928;-56
2022/08/01 03:52:29;;;;;;;6.30;4.70;;;;;;;;;;5026993;28;20537;-56
2022/08/01 03:54:56;;;;;;;6.15;4.10;;;;;;;;;;5029794;28;20037;-57
2022/08/01 03:57:23;;;;;;;8.38;4.85;;;;;;;;;;5028007;28;20033;-56
2022/08/01 03:59:49;;;;;;;6.13;4.75;;;;;;;;;;5029903;28;20130;-56
2022/08/01 04:02:16;;;;;;;7.68;5.05;;;;;;;;;;5029407;28;20090;-56
2022/08/01 04:04:42;;;;;;;6.43;4.65;;;;;;;;;;5031140;28;20057;-57
2022/08/01 04:07:27;;;;;;;5.95;4.60;;;;;;;;;;5029865;28;20119;-56
2022/08/01 04:09:53;;;;;;;7.18;4.50;;;;;;;;;;5030087;28;20029;-56
2022/08/01 04:12:18;;;;;;;8.60;5.13;;;;;;;;;;5028459;28;20407;-56
2022/08/01 04:14:44;;;;;;;9.07;4.70;;;;;;;;;;5028995;28;20471;-56
2022/08/01 04:17:09;;;;;;;13.57;5.38;;;;;;;;;;5025849;28;20038;-56
2022/08/01 04:19:34;;;;;;;7.47;4.88;;;;;;;;;;5028258;28;20021;-56
2022/08/01 04:22:02;;;;;;;6.47;5.00;;;;;;;;;;5027618;28;20235;-56
2022/08/01 04:24:30;;;;;;;6.97;4.78;;;;;;;;;;5022766;28;20033;-57
2022/08/01 04:26:58;;;;;;;7.60;5.18;;;;;;;;;;5027299;28;20410;-56
2022/08/01 04:29:25;;;;;;;7.05;4.50;;;;;;;;;;5024755;28;20501;-56
2022/08/01 04:31:54;;;;;;;6.90;4.75;;;;;;;;;;5027320;28;20021;-56
2022/08/01 04:34:22;;;;;;;9.63;5.10;;;;;;;;;;5028342;28;20499;-56
2022/08/01 04:36:49;;;;;;;9.48;5.10;;;;;;;;;;5025254;28;20044;-56
2022/08/01 04:39:16;;;;;;;7.88;5.07;;;;;;;;;;5027211;28;20038;-56
2022/08/01 04:41:42;;;;;;;7.22;4.75;;;;;;;;;;5025990;28;20113;-56
2022/08/01 04:44:08;;;;;;;6.72;4.97;;;;;;;;;;5023662;28;20112;-57
2022/08/01 04:46:34;;;;;;;6.93;5.00;;;;;;;;;;5025263;28;20021;-57
2022/08/01 04:49:01;;;;;;;7.18;4.75;;;;;;;;;;5027996;28;20084;-58
2022/08/01 04:51:26;;;;;;;10.88;5.13;;;;;;;;;;5027959;28;20021;-58
2022/08/01 04:53:52;;;;;;;7.65;4.93;;;;;;;;;;5027702;28;20044;-58
2022/08/01 04:56:20;;;;;;;7.00;5.20;;;;;;;;;;5027075;28;20108;-58
2022/08/01 04:58:46;;;;;;;7.38;4.60;;;;;;;;;;5029764;28;20120;-58
2022/08/01 05:01:12;;;;;;;6.60;4.93;;;;;;;;;;5029043;28;20113;-57
2022/08/01 05:03:37;;;;;;;6.35;4.57;;;;;;;;;;5029426;28;20032;-59
2022/08/01 05:06:03;;;;;;;7.63;5.35;;;;;;;;;;5028402;28;20037;-60
2022/08/01 05:08:28;;;;;;;8.15;4.72;;;;;;;;;;5027501;28;20026;-59
2022/08/01 05:10:54;;;;;;;8.20;5.13;;;;;;;;;;5027967;28;20024;-60
2022/08/01 05:13:19;;;;;;;7.18;4.95;;;;;;;;;;5026044;28;20111;-59
2022/08/01 05:15:45;;;;;;;6.90;4.53;;;;;;;;;;5027952;28;20021;-60
2022/08/01 05:18:11;;;;;;;7.22;4.72;;;;;;;;;;5023441;28;20063;-60
2022/08/01 05:20:37;;;;;;;8.55;4.70;;;;;;;;;;5028521;28;20175;-59
2022/08/01 05:23:05;;;;;;;9.07;5.30;;;;;;;;;;5021804;28;20037;-60
2022/08/01 05:25:31;;;;;;;8.88;4.80;;;;;;;;;;5027091;28;20035;-59
2022/08/01 05:27:56;;;;;;;11.38;5.03;;;;;;;;;;5025577;28;20030;-59
2022/08/01 05:30:22;;;;;;;6.30;4.60;;;;;;;;;;5025160;28;20387;-55
2022/08/01 05:32:47;;;;;;;6.97;4.75;;;;;;;;;;5026047;28;20049;-53
2022/08/01 05:35:12;;;;;;;12.25;4.55;;;;;;;;;;5020817;28;20112;-54
2022/08/01 05:37:38;;;;;;;10.00;4.97;;;;;;;;;;5025635;28;20488;-55
2022/08/01 05:40:04;;;;;;;8.30;4.80;;;;;;;;;;5024863;28;20132;-55
2022/08/01 05:42:30;;;;;;;6.20;4.93;;;;;;;;;;5025822;28;20033;-55
2022/08/01 05:44:55;;;;;;;6.82;4.78;;;;;;;;;;5024228;28;20040;-54
2022/08/01 05:47:21;;;;;;;7.43;4.97;;;;;;;;;;5023656;28;20030;-54
2022/08/01 05:49:46;;;;;;;9.70;6.68;;;;;;;;;;5025167;28;20033;-55
2022/08/01 05:52:12;;;;;;;9.13;5.75;;;;;;;;;;5030581;28;20486;-59
2022/08/01 05:54:37;;;;;;;7.38;4.93;;;;;;;;;;5026972;28;20300;-59
2022/08/01 05:57:03;;;;;;;7.47;4.72;;;;;;;;;;5028775;28;20495;-59
2022/08/01 05:59:29;;;;;;;5.50;4.25;;;;;;;;;;5027799;28;20091;-59
2022/08/01 06:01:55;;;;;;;5.45;4.10;;;;;;;;;;5027163;28;20650;-59
2022/08/01 06:04:20;;;;;;;9.40;6.10;;;;;;;;;;5028033;28;20026;-59
2022/08/01 06:06:47;;;;;;;10.50;5.65;;;;;;;;;;5027977;28;20025;-59
2022/08/01 06:09:12;;;;;;;8.15;4.90;;;;;;;;;;5025192;28;20038;-59
2022/08/01 06:11:38;;;;;;;6.63;4.68;;;;;;;;;;5024701;28;20581;-59
2022/08/01 06:14:03;;;;;;;7.68;4.55;;;;;;;;;;5026130;28;20025;-59
2022/08/01 06:16:29;;;;;;;6.22;3.97;;;;;;;;;;5026125;28;20050;-59
2022/08/01 06:18:54;;;;;;;7.65;4.65;;;;;;;;;;5025032;28;20065;-59
2022/08/01 06:21:20;;;;;;;7.55;4.85;;;;;;;;;;5024270;28;20026;-59
2022/08/01 06:23:45;;;;;;;10.88;7.60;;;;;;;;;;5025188;28;20033;-59
2022/08/01 06:26:11;;;;;;;7.82;4.82;;;;;;;;;;5025831;28;20061;-59
2022/08/01 06:28:38;;;;;;;4.65;4.10;;;;;;;;;;5025496;28;20471;-59
2022/08/01 06:31:03;;;;;;;6.15;4.20;;;;;;;;;;5023227;28;20377;-59
2022/08/01 06:33:29;;;;;;;5.30;3.55;;;;;;;;;;5026342;28;20036;-59
2022/08/01 06:35:54;;;;;;;5.10;3.78;;;;;;;;;;5027787;28;20372;-59
2022/08/01 06:38:20;;;;;;;5.22;3.83;;;;;;;;;;5026307;28;20029;-59
2022/08/01 06:40:46;;;;;;;7.70;4.10;;;;;;;;;;5022276;28;20032;-59
2022/08/01 06:43:11;;;;;;;4.70;3.75;;;;;;;;;;5025588;28;20033;-59
2022/08/01 06:45:38;;;;;;;6.78;3.95;;;;;;;;;;5024533;28;20029;-59
2022/08/01 06:48:04;;;;;;;6.75;4.57;;;;;;;;;;5026199;28;20056;-59
2022/08/01 06:50:30;;;;;;;5.50;4.10;;;;;;;;;;5023870;28;20438;-59
2022/08/01 06:52:55;;;;;;;6.75;4.40;;;;;;;;;;5023443;28;20022;-59
2022/08/01 06:55:21;;;;;;;6.13;4.75;;;;;;;;;;5028330;28;20037;-59
2022/08/01 06:57:51;;;;;;;7.15;4.45;;;;;;;;;;5027528;28;20367;-59
2022/08/01 07:00:22;;;;;;;5.95;4.28;;;;;;;;;;5026990;28;20052;-59
2022/08/01 07:02:49;;;;;;;5.13;4.10;;;;;;;;;;5024208;28;20049;-59
2022/08/01 07:05:14;;;;;;;7.10;4.40;;;;;;;;;;5027167;28;20025;-59
2022/08/01 07:07:40;;;;;;;7.88;4.60;;;;;;;;;;5028304;28;20032;-60
2022/08/01 07:10:08;;;;;;;6.43;4.30;;;;;;;;;;5029085;28;20029;-59
2022/08/01 07:12:36;;;;;;;7.28;4.28;;;;;;;;;;5025760;28;20610;-59
2022/08/01 07:15:02;;;;;;;5.70;4.50;;;;;;;;;;5029861;28;20219;-59
2022/08/01 07:17:28;;;;;;;7.30;4.30;;;;;;;;;;5028631;28;20481;-59
2022/08/01 07:19:54;;;;;;;6.20;4.75;;;;;;;;;;5031550;28;20084;-59
2022/08/01 07:22:20;;;;;;;6.90;4.63;;;;;;;;;;5026150;28;20037;-59
2022/08/01 07:24:46;;;;;;;4.60;4.03;;;;;;;;;;5028516;28;20167;-59
2022/08/01 07:27:11;;;;;;;8.00;4.70;;;;;;;;;;5028873;28;20550;-59
2022/08/01 07:29:37;;;;;;;6.55;4.25;;;;;;;;;;5027632;28;20025;-59
2022/08/01 07:32:02;;;;;;;5.85;4.18;;;;;;;;;;5025545;28;20624;-59
2022/08/01 07:34:28;;;;;;;7.13;4.65;;;;;;;;;;5030538;28;20391;-59
2022/08/01 07:36:53;;;;;;;6.60;4.00;;;;;;;;;;5028960;28;20028;-59
2022/08/01 07:39:19;;;;;;;5.03;3.95;;;;;;;;;;5028494;28;20049;-59
2022/08/01 07:41:45;;;;;;;5.93;3.80;;;;;;;;;;5025923;28;20057;-59
2022/08/01 07:44:10;;;;;;;7.20;4.03;;;;;;;;;;5028108;28;20503;-59
2022/08/01 07:46:36;;;;;;;4.70;3.70;;;;;;;;;;5024631;28;20026;-59
2022/08/01 07:49:01;;;;;;;4.82;3.35;;;;;;;;;;5029204;28;20443;-59
2022/08/01 07:51:27;;;;;;;4.25;3.60;;;;;;;;;;5027950;28;20055;-59
2022/08/01 07:53:52;;;;;;;5.72;3.17;;;;;;;;;;5030021;28;20022;-59
2022/08/01 07:56:19;;;;;;;6.13;3.75;;;;;;;;;;5031625;28;20088;-59
2022/08/01 07:58:45;;;;;;;7.28;3.53;;;;;;;;;;5031226;28;20028;-59
2022/08/01 08:01:10;;;;;;;4.47;3.40;;;;;;;;;;5028260;28;20033;-59
2022/08/01 08:03:35;;;;;;;4.22;2.92;;;;;;;;;;5029844;28;20525;-59
2022/08/01 08:06:01;;;;;;;6.18;3.10;;;;;;;;;;5030221;28;20025;-59
2022/08/01 08:08:27;;;;;;;5.10;3.50;;;;;;;;;;5029247;28;20057;-59
2022/08/01 08:10:52;;;;;;;3.38;2.92;;;;;;;;;;5031057;28;20295;-59
2022/08/01 08:13:18;;;;;;;3.55;3.00;;;;;;;;;;5026590;28;20079;-59
2022/08/01 08:15:43;;;;;;;5.05;2.95;;;;;;;;;;5022320;28;20021;-59
2022/08/01 08:18:09;;;;;;;7.00;3.30;;;;;;;;;;5027157;28;20060;-59
2022/08/01 08:20:34;;;;;;;6.43;4.88;;;;;;;;;;5027969;28;20056;-59
2022/08/01 08:23:00;;;;;;;7.50;4.03;;;;;;;;;;5025150;28;20022;-59
2022/08/01 08:25:27;;;;;;;5.97;3.40;;;;;;;;;;5027335;28;20103;-59
2022/08/01 08:27:52;;;;;;;4.35;2.95;;;;;;;;;;5027102;28;20079;-59
2022/08/01 08:30:18;;;;;;;4.25;3.00;;;;;;;;;;5028541;28;20109;-59
2022/08/01 08:32:44;;;;;;;3.55;2.80;;;;;;;;;;5024880;28;20021;-59
2022/08/01 08:35:10;;;;;;;5.72;2.85;;;;;;;;;;5027071;28;20029;-59
2022/08/01 08:37:36;;;;;;;6.45;3.15;;;;;;;;;;5024969;28;20045;-59
2022/08/01 08:40:03;;;;;;;3.97;3.03;;;;;;;;;;5025645;28;20032;-59
2022/08/01 08:42:29;;;;;;;7.68;3.03;;;;;;;;;;5026164;28;20045;-59
2022/08/01 08:44:55;;;;;;;3.72;2.80;;;;;;;;;;5026465;28;20021;-59
2022/08/01 08:47:21;;;;;;;5.47;3.05;;;;;;;;;;5027480;28;20025;-59
2022/08/01 08:49:49;;;;;;;3.80;3.03;;;;;;;;;;5028002;28;20101;-59
2022/08/01 08:52:15;;;;;;;7.05;3.40;;;;;;;;;;5027217;28;20033;-59
2022/08/01 08:54:42;;;;;;;4.75;3.10;;;;;;;;;;5030432;28;20029;-59
2022/08/01 08:57:10;;;;;;;4.13;3.60;;;;;;;;;;5031123;28;20053;-59
2022/08/01 08:59:37;;;;;;;4.88;3.83;;;;;;;;;;5029775;28;20025;-59
2022/08/01 09:02:04;;;;;;;5.47;3.72;;;;;;;;;;5026875;28;20384;-59
2022/08/01 09:04:30;;;;;;;5.38;3.38;;;;;;;;;;5028307;28;20446;-59
2022/08/01 09:06:55;;;;;;;6.38;4.15;;;;;;;;;;5023338;28;20026;-59
2022/08/01 09:09:21;;;;;;;4.63;3.25;;;;;;;;;;5028138;28;20078;-59
2022/08/01 09:11:46;;;;;;;4.85;3.55;;;;;;;;;;5027980;28;20463;-59
2022/08/01 09:14:23;;;;;;;5.75;3.83;;;;;;;;;;5025308;28;20034;-59
2022/08/01 09:17:16;;;;;;;7.50;3.92;;;;;;;;;;5020714;28;20057;-59
2022/08/01 09:19:44;;;;;;;5.25;3.58;;;;;;;;;;5023133;28;20083;-59
2022/08/01 09:22:17;;;;;;;5.10;3.35;;;;;;;;;;5025577;28;20088;-59
2022/08/01 09:24:57;;;;;;;8.02;4.55;;;;;;;;;;5022053;28;20032;-59
2022/08/01 09:27:25;;;;;;;5.07;3.72;;;;;;;;;;5025770;28;20035;-59
2022/08/01 09:29:51;;;;;;;5.25;3.65;;;;;;;;;;5023990;28;20017;-59
2022/08/01 09:32:17;;;;;;;5.28;3.70;;;;;;;;;;5025702;28;20094;-59
2022/08/01 09:34:43;;;;;;;4.45;3.80;;;;;;;;;;5027425;28;20117;-59
2022/08/01 09:37:09;;;;;;;6.40;3.90;;;;;;;;;;5026874;28;20458;-59
2022/08/01 09:39:37;;;;;;;10.18;3.85;;;;;;;;;;5025171;28;20071;-59
2022/08/01 09:42:26;;;;;;;4.65;3.40;;;;;;;;;;5026530;28;20030;-59
2022/08/01 09:44:52;;;;;;;4.05;3.65;;;;;;;;;;5027447;28;20029;-59
2022/08/01 09:47:22;;;;;;;6.15;4.07;;;;;;;;;;5025669;28;20056;-59
2022/08/01 09:49:57;;;;;;;4.15;3.75;;;;;;;;;;5024962;28;20109;-59
2022/08/01 09:52:26;;;;;;;4.32;3.53;;;;;;;;;;5030239;28;20043;-59
2022/08/01 09:55:00;;;;;;;6.03;3.53;;;;;;;;;;5028262;28;20022;-59
2022/08/01 09:57:27;;;;;;;5.22;3.85;;;;;;;;;;5028139;28;20028;-60
2022/08/01 09:59:55;;;;;;;5.13;3.55;;;;;;;;;;5027644;28;20033;-59
2022/08/01 10:02:30;;;;;;;5.33;3.87;;;;;;;;;;5026836;28;20048;-60
2022/08/01 10:04:56;;;;;;;6.10;4.00;;;;;;;;;;5027899;28;20013;-59
2022/08/01 10:07:22;;;;;;;5.82;3.97;;;;;;;;;;5026826;28;20117;-59
2022/08/01 10:09:48;;;;;;;5.40;3.70;;;;;;;;;;5028221;28;20057;-59
2022/08/01 10:12:18;;;;;;;4.60;3.80;;;;;;;;;;5024078;28;20021;-59
2022/08/01 10:14:49;;;;;;;5.03;3.42;;;;;;;;;;5026406;28;20029;-59
2022/08/01 10:17:16;;;;;;;10.13;4.13;;;;;;;;;;5023328;28;20049;-59
2022/08/01 10:19:43;;;;;;;4.15;3.60;;;;;;;;;;5025593;28;20025;-60
2022/08/01 10:22:10;;;;;;;6.05;3.63;;;;;;;;;;5025206;28;20479;-60
2022/08/01 10:24:39;;;;;;;5.55;3.33;;;;;;;;;;5025071;28;20451;-59
2022/08/01 10:27:07;;;;;;;5.30;3.50;;;;;;;;;;5023651;28;20057;-59
2022/08/01 10:29:37;;;;;;;4.25;3.60;;;;;;;;;;5024313;28;20096;-58
2022/08/01 10:32:06;;;;;;;3.72;3.22;;;;;;;;;;5020995;28;20056;-58
2022/08/01 10:34:33;;;;;;;5.72;3.80;;;;;;;;;;5025934;28;20045;-58
2022/08/01 10:37:00;;;;;;;5.72;3.72;;;;;;;;;;5024347;28;20032;-58
2022/08/01 10:39:28;;;;;;;5.30;3.20;;;;;;;;;;5025494;28;20104;-58
2022/08/01 10:41:54;;;;;;;3.80;3.37;;;;;;;;;;5026277;28;20022;-58
2022/08/01 10:44:20;;;;;;;4.85;3.03;;;;;;;;;;5030210;28;20264;-59
2022/08/01 10:46:50;;;;;;;4.63;3.20;;;;;;;;;;5027865;28;20100;-58
2022/08/01 10:49:17;;;;;;;5.50;3.05;;;;;;;;;;5024279;28;20048;-59
2022/08/01 10:51:43;;;;;;;6.15;3.28;;;;;;;;;;5029644;28;20021;-58
2022/08/01 10:54:10;;;;;;;5.00;3.72;;;;;;;;;;5032552;28;20037;-58
2022/08/01 10:56:59;;;;;;;5.05;3.33;;;;;;;;;;5029350;28;20013;-58
2022/08/01 10:59:27;;;;;;;5.25;3.30;;;;;;;;;;5031148;28;20025;-58
2022/08/01 11:02:00;;;;;;;4.05;3.25;;;;;;;;;;5030585;28;20030;-57
2022/08/01 11:04:55;;;;;;;3.25;2.90;;;;;;;;;;5030810;28;20108;-58
2022/08/01 11:07:23;;;;;;;5.20;3.28;;;;;;;;;;5028110;28;20021;-58
2022/08/01 11:10:04;;;;;;;4.50;3.13;;;;;;;;;;5028809;28;20028;-58
2022/08/01 11:12:40;;;;;;;4.18;3.13;;;;;;;;;;5028091;28;20112;-58
2022/08/01 11:15:07;;;;;;;4.63;3.45;;;;;;;;;;5029308;28;20497;-58
2022/08/01 11:17:39;;;;;;;4.07;3.38;;;;;;;;;;5029457;28;20025;-59
2022/08/01 11:20:12;;;;;;;3.80;3.30;;;;;;;;;;5026855;28;20022;-58
2022/08/01 11:23:06;;;;;;;6.53;3.53;;;;;;;;;;5027593;28;20026;-58
2022/08/01 11:25:37;;;;;;;4.68;3.30;;;;;;;;;;5029691;28;20036;-58
2022/08/01 11:28:17;;;;;;;4.28;3.35;;;;;;;;;;5025640;28;20060;-58
2022/08/01 11:30:43;;;;;;;6.75;3.50;;;;;;;;;;5028927;28;20024;-58
2022/08/01 11:33:09;;;;;;;5.00;3.63;;;;;;;;;;5034880;28;20108;-59
2022/08/01 11:35:36;;;;;;;4.38;3.75;;;;;;;;;;5028142;28;20025;-58
2022/08/01 11:38:27;;;;;;;5.78;4.40;;;;;;;;;;5027995;28;20037;-58
2022/08/01 11:41:20;;;;;;;5.95;4.93;;;;;;;;;;5028637;28;20503;-58
2022/08/01 11:44:00;;;;;;;7.00;5.68;;;;;;;;;;5027358;28;20033;-58
2022/08/01 11:47:01;;;;;;;8.43;5.30;;;;;;;;;;5024844;28;20493;-58
2022/08/01 11:49:27;;;;;;;7.97;5.70;;;;;;;;;;5025811;28;20116;-59
2022/08/01 11:52:15;;;;;;;7.90;6.10;;;;;;;;;;5027828;28;20121;-58
2022/08/01 11:55:06;;;;;;;7.07;5.85;;;;;;;;;;5020913;28;20629;-58
2022/08/01 11:57:37;;;;;;;9.95;6.43;;;;;;;;;;5026068;28;20132;-58
2022/08/01 12:00:12;;;;;;;10.63;5.75;;;;;;;;;;5033730;28;20406;-59
2022/08/01 12:02:37;;;;;;;7.57;5.55;;;;;;;;;;5022321;28;20033;-59
2022/08/01 12:05:08;;;;;;;10.60;6.35;;;;;;;;;;5030361;28;20553;-58
2022/08/01 12:07:36;;;;;;;9.52;6.18;;;;;;;;;;5028079;28;20034;-58
2022/08/01 12:10:12;;;;;;;8.27;5.80;;;;;;;;;;5027938;28;20057;-59
2022/08/01 12:12:46;;;;;;;8.38;6.35;;;;;;;;;;5027439;28;20079;-59
2022/08/01 12:15:13;;;;;;;8.90;5.68;;;;;;;;;;5027215;28;20083;-58
2022/08/01 12:17:46;;;;;;;11.93;6.10;;;;;;;;;;5026991;28;20021;-59
2022/08/01 12:20:15;;;;;;;8.23;5.80;;;;;;;;;;5027168;28;20057;-60
2022/08/01 12:22:41;;;;;;;7.47;5.57;;;;;;;;;;5026591;28;20422;-61
2022/08/01 12:25:15;;;;;;;6.05;5.05;;;;;;;;;;5025694;28;20037;-61
2022/08/01 12:27:42;;;;;;;7.72;5.03;;;;;;;;;;5026809;28;20506;-60
2022/08/01 12:30:11;;;;;;;5.90;5.00;;;;;;;;;;5029148;28;20504;-61
2022/08/01 12:32:37;;;;;;;;;;;;;;;;;;5025241;28;20083;-61
2022/08/01 12:35:17;;;;;;;5.38;4.47;;;;;;;;;;5026762;28;19937;-61
2022/08/01 12:37:49;;;;;;;6.57;4.55;;;;;;;;;;5020102;28;20029;-60
2022/08/01 12:40:19;;;;;;;5.25;4.53;;;;;;;;;;5027124;28;20057;-63
2022/08/01 12:42:56;;;;;;;7.85;5.03;;;;;;;;;;5021831;28;20361;-62
2022/08/01 12:45:25;;;;;;;9.65;5.50;;;;;;;;;;5020624;28;20026;-61
2022/08/01 12:47:52;;;;;;;6.97;5.10;;;;;;;;;;5027263;28;20495;-62
2022/08/01 12:50:23;;;;;;;7.88;5.85;;;;;;;;;;5029428;28;20040;-61
2022/08/01 12:52:49;;;;;;;9.32;5.60;;;;;;;;;;5027296;28;20083;-61
2022/08/01 12:55:17;;;;;;;8.55;5.25;;;;;;;;;;5029496;28;20033;-58
2022/08/01 12:57:49;;;;;;;6.20;5.50;;;;;;;;;;5028670;28;20033;-59
2022/08/01 13:00:17;;;;;;;7.75;5.68;;;;;;;;;;5027122;28;20109;-59
2022/08/01 13:02:44;;;;;;;8.07;5.57;;;;;;;;;;5026457;28;20112;-59
2022/08/01 13:05:10;;;;;;;9.95;5.45;;;;;;;;;;5026957;28;20030;-59
2022/08/01 13:07:44;;;;;;;12.57;5.80;;;;;;;;;;5026980;28;20049;-59
2022/08/01 13:10:11;;;;;;;6.75;5.47;;;;;;;;;;5026212;28;20059;-59
2022/08/01 13:12:37;;;;;;;6.70;5.03;;;;;;;;;;5025113;28;20025;-60
2022/08/01 13:15:20;;;;;;;13.13;5.30;;;;;;;;;;5027089;28;20056;-57
2022/08/01 13:17:45;;;;;;;10.50;5.40;;;;;;;;;;5025181;28;20029;-59
2022/08/01 13:20:21;;;;;;;20.33;5.82;;;;;;;;;;5025020;28;20021;-58
2022/08/01 13:22:47;;;;;;;13.82;5.93;;;;;;;;;;5026739;28;20037;-58
2022/08/01 13:25:14;;;;;;;11.35;5.20;;;;;;;;;;5026666;28;20535;-59
2022/08/01 13:27:40;;;;;;;9.25;4.85;;;;;;;;;;5018223;28;20025;-61
2022/08/01 13:30:18;;;;;;;5.75;4.90;;;;;;;;;;5022439;28;20041;-60
2022/08/01 13:33:00;;;;;;;5.80;4.63;;;;;;;;;;5026040;28;20036;-60
2022/08/01 13:35:25;;;;;;;6.20;4.72;;;;;;;;;;5025630;28;20052;-61
2022/08/01 13:37:51;;;;;;;7.68;4.82;;;;;;;;;;5023495;28;20014;-61
2022/08/01 13:40:26;;;;;;;7.20;4.57;;;;;;;;;;5026039;28;20506;-61
2022/08/01 13:42:51;;;;;;;6.35;4.53;;;;;;;;;;5024738;28;20534;-60
2022/08/01 13:45:16;;;;;;;4.80;4.30;;;;;;;;;;5026465;28;20160;-60
2022/08/01 13:47:43;;;;;;;7.50;4.20;;;;;;;;;;5024637;28;20650;-61
2022/08/01 13:50:08;;;;;;;4.68;4.22;;;;;;;;;;5029166;28;20030;-61
2022/08/01 13:52:34;;;;;;;5.03;3.65;;;;;;;;;;5027455;28;20033;-62
2022/08/01 13:55:00;;;;;;;5.47;4.13;;;;;;;;;;5025719;28;20407;-61
2022/08/01 13:57:26;;;;;;;6.82;4.30;;;;;;;;;;5025946;28;20021;-61
2022/08/01 13:59:51;;;;;;;4.90;3.63;;;;;;;;;;5025512;28;20017;-61
2022/08/01 14:02:17;;;;;;;4.25;3.85;;;;;;;;;;5024721;28;20029;-61
2022/08/01 14:04:42;;;;;;;6.68;3.47;;;;;;;;;;5029021;28;20084;-62
2022/08/01 14:07:07;;;;;;;5.55;3.55;;;;;;;;;;5025962;28;20037;-61
2022/08/01 14:09:33;;;;;;;5.90;3.72;;;;;;;;;;5025820;28;20053;-61
2022/08/01 14:11:58;;;;;;;5.60;3.60;;;;;;;;;;5025724;28;20104;-61
2022/08/01 14:14:24;;;;;;;5.53;4.25;;;;;;;;;;5025704;28;20083;-61
2022/08/01 14:16:49;;;;;;;5.53;3.55;;;;;;;;;;5024097;28;20075;-61
2022/08/01 14:19:16;;;;;;;5.47;3.40;;;;;;;;;;5023783;28;20495;-62
2022/08/01 14:21:41;;;;;;;5.93;3.80;;;;;;;;;;5023302;28;20025;-61
2022/08/01 14:24:07;;;;;;;4.35;3.42;;;;;;;;;;5020770;28;20546;-61
2022/08/01 14:26:33;;;;;;;7.07;3.53;;;;;;;;;;5025076;28;20438;-62
2022/08/01 14:28:58;;;;;;;4.53;3.50;;;;;;;;;;5023303;28;20534;-62
2022/08/01 14:31:24;;;;;;;3.97;3.58;;;;;;;;;;5024621;28;20391;-62
2022/08/01 14:33:49;;;;;;;7.22;3.80;;;;;;;;;;5027122;28;20056;-62
2022/08/01 14:36:15;;;;;;;3.42;3.00;;;;;;;;;;5024277;28;20025;-63
2022/08/01 14:38:40;;;;;;;3.80;3.42;;;;;;;;;;5022441;28;20030;-62
2022/08/01 14:41:06;;;;;;;5.22;3.97;;;;;;;;;;5024068;28;20049;-62
2022/08/01 14:43:34;;;;;;;6.72;3.60;;;;;;;;;;5021394;28;20071;-63
2022/08/01 14:46:00;;;;;;;4.18;3.08;;;;;;;;;;5024618;28;20064;-62
2022/08/01 14:48:26;;;;;;;4.32;3.35;;;;;;;;;;5024077;28;20029;-62
2022/08/01 14:50:52;;;;;;;5.28;3.47;;;;;;;;;;5028259;28;20495;-62